Milwaukee, Wisconsin
Current Conditions -  °F | °C
As of 8:52 PM on Monday 22 Dec 2014 (Local Time) from KMKE Reporting Station
Light Rain Light Rain  
Wind Chill: 30°   Ceiling: 300
Heat Index: 39°   Visibility: 2mi
Dew Point: 37°   Wind: 17mph
Humidity: 93%   Direction: 130°SE
Pressure: 29.68"   Gusts: 24mph
Location:  43.04°N, 87.91°W
Report Text: KMKE 230252Z 13015G21KT 2SM -RA BR OVC003 04/03 A2968 RMK AO2 SFC VIS 3 SLP056 P0002 60011 T00390028 57013
Loading
Personal Weather Stations






























Interactive Weather Map New forecast layout! Learn more

10-Day Weather Forecast

Advertisements
Track Severe Weather on mobile